sensor_id;sensor_type;location;lat;lon;timestamp;temperature;humidity
5429;DHT22;2737;52.386;9.980;2022-09-09T00:01:04;14.20;99.90
5429;DHT22;2737;52.386;9.980;2022-09-09T00:03:43;14.20;99.90
5429;DHT22;2737;52.386;9.980;2022-09-09T00:06:19;14.20;99.90
5429;DHT22;2737;52.386;9.980;2022-09-09T00:08:56;14.20;99.90
5429;DHT22;2737;52.386;9.980;2022-09-09T00:11:30;14.10;99.90
5429;DHT22;2737;52.386;9.980;2022-09-09T00:14:03;14.10;99.90
5429;DHT22;2737;52.386;9.980;2022-09-09T00:16:41;14.10;99.90
5429;DHT22;2737;52.386;9.980;2022-09-09T00:19:18;14.10;99.90
5429;DHT22;2737;52.386;9.980;2022-09-09T00:21:52;14.10;99.90
5429;DHT22;2737;52.386;9.980;2022-09-09T00:24:27;14.10;99.90
5429;DHT22;2737;52.386;9.980;2022-09-09T00:27:00;14.10;99.90
5429;DHT22;2737;52.386;9.980;2022-09-09T00:29:33;14.10;99.90
5429;DHT22;2737;52.386;9.980;2022-09-09T00:32:11;14.10;99.90
5429;DHT22;2737;52.386;9.980;2022-09-09T00:34:48;14.10;99.90
5429;DHT22;2737;52.386;9.980;2022-09-09T00:37:16;14.10;99.90
5429;DHT22;2737;52.386;9.980;2022-09-09T00:39:45;14.10;99.90
5429;DHT22;2737;52.386;9.980;2022-09-09T00:42:15;14.00;99.90
5429;DHT22;2737;52.386;9.980;2022-09-09T00:44:52;14.00;99.90
5429;DHT22;2737;52.386;9.980;2022-09-09T00:47:40;14.00;99.90
5429;DHT22;2737;52.386;9.980;2022-09-09T00:50:22;13.90;99.90
5429;DHT22;2737;52.386;9.980;2022-09-09T00:53:05;13.90;99.90
5429;DHT22;2737;52.386;9.980;2022-09-09T00:55:41;13.90;99.90
5429;DHT22;2737;52.386;9.980;2022-09-09T00:58:10;13.90;99.90
5429;DHT22;2737;52.386;9.980;2022-09-09T01:00:42;13.80;99.90
5429;DHT22;2737;52.386;9.980;2022-09-09T01:03:22;13.80;99.90
5429;DHT22;2737;52.386;9.980;2022-09-09T01:05:58;13.80;99.90
5429;DHT22;2737;52.386;9.980;2022-09-09T01:08:43;13.80;99.90
5429;DHT22;2737;52.386;9.980;2022-09-09T01:11:18;13.80;99.90
5429;DHT22;2737;52.386;9.980;2022-09-09T01:13:52;13.80;99.90
5429;DHT22;2737;52.386;9.980;2022-09-09T01:16:20;13.80;99.90
5429;DHT22;2737;52.386;9.980;2022-09-09T01:18:49;13.80;99.90
5429;DHT22;2737;52.386;9.980;2022-09-09T01:21:25;13.80;99.90
5429;DHT22;2737;52.386;9.980;2022-09-09T01:24:20;13.80;99.90
5429;DHT22;2737;52.386;9.980;2022-09-09T01:26:51;13.80;99.90
5429;DHT22;2737;52.386;9.980;2022-09-09T01:29:21;13.80;99.90
5429;DHT22;2737;52.386;9.980;2022-09-09T01:31:56;13.70;99.90
5429;DHT22;2737;52.386;9.980;2022-09-09T01:34:25;13.60;99.90
5429;DHT22;2737;52.386;9.980;2022-09-09T01:36:58;13.60;99.90
5429;DHT22;2737;52.386;9.980;2022-09-09T01:39:26;13.60;99.90
5429;DHT22;2737;52.386;9.980;2022-09-09T01:41:55;13.50;99.90
5429;DHT22;2737;52.386;9.980;2022-09-09T01:44:23;13.60;99.90
5429;DHT22;2737;52.386;9.980;2022-09-09T01:46:51;13.50;99.90
5429;DHT22;2737;52.386;9.980;2022-09-09T01:49:18;13.50;99.90
5429;DHT22;2737;52.386;9.980;2022-09-09T01:51:49;13.50;99.90
5429;DHT22;2737;52.386;9.980;2022-09-09T01:54:16;13.50;99.90
5429;DHT22;2737;52.386;9.980;2022-09-09T01:56:54;13.50;99.90
5429;DHT22;2737;52.386;9.980;2022-09-09T01:59:32;13.40;99.90
5429;DHT22;2737;52.386;9.980;2022-09-09T02:02:10;13.40;99.90
5429;DHT22;2737;52.386;9.980;2022-09-09T02:04:40;13.40;99.90
5429;DHT22;2737;52.386;9.980;2022-09-09T02:07:19;13.40;99.90
5429;DHT22;2737;52.386;9.980;2022-09-09T02:09:57;13.40;99.90
5429;DHT22;2737;52.386;9.980;2022-09-09T02:12:26;13.40;99.90
5429;DHT22;2737;52.386;9.980;2022-09-09T02:15:02;13.40;99.90
5429;DHT22;2737;52.386;9.980;2022-09-09T02:17:34;13.40;99.90
5429;DHT22;2737;52.386;9.980;2022-09-09T02:20:06;13.40;99.90
5429;DHT22;2737;52.386;9.980;2022-09-09T02:22:35;13.40;99.90
5429;DHT22;2737;52.386;9.980;2022-09-09T02:25:04;13.40;99.90
5429;DHT22;2737;52.386;9.980;2022-09-09T02:27:32;13.40;99.90
5429;DHT22;2737;52.386;9.980;2022-09-09T02:30:02;13.50;99.90
5429;DHT22;2737;52.386;9.980;2022-09-09T02:32:32;13.50;99.90
5429;DHT22;2737;52.386;9.980;2022-09-09T02:35:05;13.50;99.90
5429;DHT22;2737;52.386;9.980;2022-09-09T02:37:37;13.50;99.90
5429;DHT22;2737;52.386;9.980;2022-09-09T02:40:06;13.50;99.90
5429;DHT22;2737;52.386;9.980;2022-09-09T02:42:38;13.50;99.90
5429;DHT22;2737;52.386;9.980;2022-09-09T02:45:09;13.50;99.90
5429;DHT22;2737;52.386;9.980;2022-09-09T02:47:40;13.50;99.90
5429;DHT22;2737;52.386;9.980;2022-09-09T02:50:13;13.50;99.90
5429;DHT22;2737;52.386;9.980;2022-09-09T02:52:57;13.50;99.90
5429;DHT22;2737;52.386;9.980;2022-09-09T02:55:35;13.50;99.90
5429;DHT22;2737;52.386;9.980;2022-09-09T02:58:06;13.50;99.90
5429;DHT22;2737;52.386;9.980;2022-09-09T03:00:37;13.50;99.90
5429;DHT22;2737;52.386;9.980;2022-09-09T03:03:07;13.50;99.90
5429;DHT22;2737;52.386;9.980;2022-09-09T03:05:35;13.60;99.90
5429;DHT22;2737;52.386;9.980;2022-09-09T03:08:02;13.50;99.90
5429;DHT22;2737;52.386;9.980;2022-09-09T03:10:29;13.50;99.90
5429;DHT22;2737;52.386;9.980;2022-09-09T03:12:56;13.50;99.90
5429;DHT22;2737;52.386;9.980;2022-09-09T03:15:23;13.50;99.90
5429;DHT22;2737;52.386;9.980;2022-09-09T03:17:56;13.50;99.90
5429;DHT22;2737;52.386;9.980;2022-09-09T03:20:23;13.50;99.90
5429;DHT22;2737;52.386;9.980;2022-09-09T03:22:51;13.60;99.90
5429;DHT22;2737;52.386;9.980;2022-09-09T03:25:18;13.60;99.90
5429;DHT22;2737;52.386;9.980;2022-09-09T03:27:45;13.60;99.90
5429;DHT22;2737;52.386;9.980;2022-09-09T03:30:13;13.60;99.90
5429;DHT22;2737;52.386;9.980;2022-09-09T03:32:41;13.70;99.90
5429;DHT22;2737;52.386;9.980;2022-09-09T03:35:09;13.60;99.90
5429;DHT22;2737;52.386;9.980;2022-09-09T03:37:36;13.70;99.90
5429;DHT22;2737;52.386;9.980;2022-09-09T03:40:05;13.60;99.90
5429;DHT22;2737;52.386;9.980;2022-09-09T03:42:32;13.70;99.90
5429;DHT22;2737;52.386;9.980;2022-09-09T03:45:03;13.70;99.90
5429;DHT22;2737;52.386;9.980;2022-09-09T03:47:30;13.70;99.90
5429;DHT22;2737;52.386;9.980;2022-09-09T03:49:57;13.70;99.90
5429;DHT22;2737;52.386;9.980;2022-09-09T03:52:26;13.70;99.90
5429;DHT22;2737;52.386;9.980;2022-09-09T03:54:53;13.70;99.90
5429;DHT22;2737;52.386;9.980;2022-09-09T03:57:22;13.70;99.90
5429;DHT22;2737;52.386;9.980;2022-09-09T03:59:49;13.70;99.90
5429;DHT22;2737;52.386;9.980;2022-09-09T04:02:16;13.80;99.90
5429;DHT22;2737;52.386;9.980;2022-09-09T04:04:43;13.80;99.90
5429;DHT22;2737;52.386;9.980;2022-09-09T04:07:10;13.80;99.90
5429;DHT22;2737;52.386;9.980;2022-09-09T04:09:38;13.80;99.90
5429;DHT22;2737;52.386;9.980;2022-09-09T04:12:06;13.80;99.90
5429;DHT22;2737;52.386;9.980;2022-09-09T04:14:33;13.90;99.90
5429;DHT22;2737;52.386;9.980;2022-09-09T04:17:00;13.90;99.90
5429;DHT22;2737;52.386;9.980;2022-09-09T04:19:31;13.90;99.90
5429;DHT22;2737;52.386;9.980;2022-09-09T04:21:58;13.90;99.90
5429;DHT22;2737;52.386;9.980;2022-09-09T04:24:25;13.90;99.90
5429;DHT22;2737;52.386;9.980;2022-09-09T04:26:56;13.90;99.90
5429;DHT22;2737;52.386;9.980;2022-09-09T04:29:23;13.90;99.90
5429;DHT22;2737;52.386;9.980;2022-09-09T04:31:50;14.00;99.90
5429;DHT22;2737;52.386;9.980;2022-09-09T04:34:17;14.00;99.90
5429;DHT22;2737;52.386;9.980;2022-09-09T04:36:44;14.00;99.90
5429;DHT22;2737;52.386;9.980;2022-09-09T04:39:11;14.00;99.90
5429;DHT22;2737;52.386;9.980;2022-09-09T04:41:38;14.00;99.90
5429;DHT22;2737;52.386;9.980;2022-09-09T04:44:06;14.10;99.90
5429;DHT22;2737;52.386;9.980;2022-09-09T04:46:33;14.10;99.90
5429;DHT22;2737;52.386;9.980;2022-09-09T04:49:01;14.10;99.90
5429;DHT22;2737;52.386;9.980;2022-09-09T04:51:28;14.10;99.90
5429;DHT22;2737;52.386;9.980;2022-09-09T04:53:57;14.10;99.90
5429;DHT22;2737;52.386;9.980;2022-09-09T04:56:24;14.10;99.90
5429;DHT22;2737;52.386;9.980;2022-09-09T04:58:52;14.10;99.90
5429;DHT22;2737;52.386;9.980;2022-09-09T05:01:22;14.10;99.90
5429;DHT22;2737;52.386;9.980;2022-09-09T05:03:50;14.20;99.90
5429;DHT22;2737;52.386;9.980;2022-09-09T05:06:20;14.20;99.90
5429;DHT22;2737;52.386;9.980;2022-09-09T05:08:47;14.20;99.90
5429;DHT22;2737;52.386;9.980;2022-09-09T05:11:16;14.20;99.90
5429;DHT22;2737;52.386;9.980;2022-09-09T05:13:44;14.30;99.90
5429;DHT22;2737;52.386;9.980;2022-09-09T05:16:12;14.30;99.90
5429;DHT22;2737;52.386;9.980;2022-09-09T05:18:41;14.30;99.90
5429;DHT22;2737;52.386;9.980;2022-09-09T05:21:09;14.30;99.90
5429;DHT22;2737;52.386;9.980;2022-09-09T05:23:36;14.40;99.90
5429;DHT22;2737;52.386;9.980;2022-09-09T05:26:04;14.40;99.90
5429;DHT22;2737;52.386;9.980;2022-09-09T05:28:34;14.40;99.90
5429;DHT22;2737;52.386;9.980;2022-09-09T05:31:03;14.40;99.90
5429;DHT22;2737;52.386;9.980;2022-09-09T05:33:31;14.50;99.90
5429;DHT22;2737;52.386;9.980;2022-09-09T05:36:01;14.50;99.90
5429;DHT22;2737;52.386;9.980;2022-09-09T05:38:30;14.50;99.90
5429;DHT22;2737;52.386;9.980;2022-09-09T05:40:58;14.50;99.90
5429;DHT22;2737;52.386;9.980;2022-09-09T05:43:26;14.50;99.90
5429;DHT22;2737;52.386;9.980;2022-09-09T05:46:02;14.50;99.90
5429;DHT22;2737;52.386;9.980;2022-09-09T05:48:30;14.50;99.90
5429;DHT22;2737;52.386;9.980;2022-09-09T05:50:58;14.50;99.90
5429;DHT22;2737;52.386;9.980;2022-09-09T05:53:26;14.60;99.90
5429;DHT22;2737;52.386;9.980;2022-09-09T05:56:01;14.60;99.90
5429;DHT22;2737;52.386;9.980;2022-09-09T05:58:29;14.60;99.90
5429;DHT22;2737;52.386;9.980;2022-09-09T06:01:04;14.70;99.90
5429;DHT22;2737;52.386;9.980;2022-09-09T06:03:33;14.70;99.90
5429;DHT22;2737;52.386;9.980;2022-09-09T06:06:01;14.80;99.90
5429;DHT22;2737;52.386;9.980;2022-09-09T06:08:32;14.80;99.90
5429;DHT22;2737;52.386;9.980;2022-09-09T06:11:03;14.90;99.90
5429;DHT22;2737;52.386;9.980;2022-09-09T06:13:30;14.90;99.90
5429;DHT22;2737;52.386;9.980;2022-09-09T06:15:57;14.90;99.90
5429;DHT22;2737;52.386;9.980;2022-09-09T06:18:25;15.00;99.90
5429;DHT22;2737;52.386;9.980;2022-09-09T06:20:54;15.00;99.90
5429;DHT22;2737;52.386;9.980;2022-09-09T06:23:21;15.00;99.90
5429;DHT22;2737;52.386;9.980;2022-09-09T06:25:50;15.00;99.90
5429;DHT22;2737;52.386;9.980;2022-09-09T06:28:17;15.10;99.90
5429;DHT22;2737;52.386;9.980;2022-09-09T06:30:44;15.10;99.90
5429;DHT22;2737;52.386;9.980;2022-09-09T06:33:12;15.10;99.90
5429;DHT22;2737;52.386;9.980;2022-09-09T06:35:39;15.20;99.90
5429;DHT22;2737;52.386;9.980;2022-09-09T06:38:07;15.30;99.90
5429;DHT22;2737;52.386;9.980;2022-09-09T06:40:34;15.40;99.90
5429;DHT22;2737;52.386;9.980;2022-09-09T06:43:03;15.60;99.90
5429;DHT22;2737;52.386;9.980;2022-09-09T06:45:30;15.70;99.90
5429;DHT22;2737;52.386;9.980;2022-09-09T06:47:57;16.00;99.90
5429;DHT22;2737;52.386;9.980;2022-09-09T06:50:24;16.10;99.90
5429;DHT22;2737;52.386;9.980;2022-09-09T06:52:51;16.20;99.90
5429;DHT22;2737;52.386;9.980;2022-09-09T06:55:18;16.20;99.90
5429;DHT22;2737;52.386;9.980;2022-09-09T06:57:46;16.30;99.90
5429;DHT22;2737;52.386;9.980;2022-09-09T07:00:15;16.30;99.90
5429;DHT22;2737;52.386;9.980;2022-09-09T07:02:42;16.40;99.90
5429;DHT22;2737;52.386;9.980;2022-09-09T07:05:10;16.50;99.90
5429;DHT22;2737;52.386;9.980;2022-09-09T07:07:37;16.70;99.90
5429;DHT22;2737;52.386;9.980;2022-09-09T07:10:05;16.90;99.90
5429;DHT22;2737;52.386;9.980;2022-09-09T07:12:33;17.20;99.90
5429;DHT22;2737;52.386;9.980;2022-09-09T07:15:00;17.40;99.90
5429;DHT22;2737;52.386;9.980;2022-09-09T07:17:28;17.60;99.90
5429;DHT22;2737;52.386;9.980;2022-09-09T07:19:55;17.70;99.90
5429;DHT22;2737;52.386;9.980;2022-09-09T07:22:23;17.70;99.90
5429;DHT22;2737;52.386;9.980;2022-09-09T07:24:50;17.60;99.90
5429;DHT22;2737;52.386;9.980;2022-09-09T07:27:17;17.70;99.90
5429;DHT22;2737;52.386;9.980;2022-09-09T07:29:44;17.80;99.90
5429;DHT22;2737;52.386;9.980;2022-09-09T07:32:12;17.90;99.90
5429;DHT22;2737;52.386;9.980;2022-09-09T07:34:40;17.90;99.90
5429;DHT22;2737;52.386;9.980;2022-09-09T07:37:07;17.90;99.90
5429;DHT22;2737;52.386;9.980;2022-09-09T07:39:37;18.00;99.90
5429;DHT22;2737;52.386;9.980;2022-09-09T07:42:07;18.10;99.90
5429;DHT22;2737;52.386;9.980;2022-09-09T07:44:35;18.00;99.90
5429;DHT22;2737;52.386;9.980;2022-09-09T07:47:02;18.00;99.90
5429;DHT22;2737;52.386;9.980;2022-09-09T07:49:29;18.00;99.90
5429;DHT22;2737;52.386;9.980;2022-09-09T07:51:58;18.10;99.90
5429;DHT22;2737;52.386;9.980;2022-09-09T07:54:25;18.20;99.90
5429;DHT22;2737;52.386;9.980;2022-09-09T07:56:53;18.20;99.90
5429;DHT22;2737;52.386;9.980;2022-09-09T07:59:20;18.20;99.90
5429;DHT22;2737;52.386;9.980;2022-09-09T08:01:49;18.30;99.90
5429;DHT22;2737;52.386;9.980;2022-09-09T08:04:21;18.50;99.90
5429;DHT22;2737;52.386;9.980;2022-09-09T08:06:50;18.40;99.90
5429;DHT22;2737;52.386;9.980;2022-09-09T08:09:19;18.30;99.90
5429;DHT22;2737;52.386;9.980;2022-09-09T08:11:48;18.30;99.90
5429;DHT22;2737;52.386;9.980;2022-09-09T08:14:15;18.50;99.90
5429;DHT22;2737;52.386;9.980;2022-09-09T08:16:44;18.50;99.90
5429;DHT22;2737;52.386;9.980;2022-09-09T08:19:12;18.50;99.90
5429;DHT22;2737;52.386;9.980;2022-09-09T08:21:42;18.50;99.90
5429;DHT22;2737;52.386;9.980;2022-09-09T08:24:10;18.60;99.90
5429;DHT22;2737;52.386;9.980;2022-09-09T08:26:40;18.70;99.90
5429;DHT22;2737;52.386;9.980;2022-09-09T08:29:08;18.50;99.90
5429;DHT22;2737;52.386;9.980;2022-09-09T08:31:38;18.60;99.90
5429;DHT22;2737;52.386;9.980;2022-09-09T08:34:06;18.80;99.90
5429;DHT22;2737;52.386;9.980;2022-09-09T08:36:37;18.90;99.90
5429;DHT22;2737;52.386;9.980;2022-09-09T08:39:05;19.00;99.90
5429;DHT22;2737;52.386;9.980;2022-09-09T08:44:39;18.80;99.90
5429;DHT22;2737;52.386;9.980;2022-09-09T08:47:14;18.80;99.90
5429;DHT22;2737;52.386;9.980;2022-09-09T08:50:01;18.90;99.90
5429;DHT22;2737;52.386;9.980;2022-09-09T08:52:37;19.00;99.90
5429;DHT22;2737;52.386;9.980;2022-09-09T08:55:20;19.10;99.90
5429;DHT22;2737;52.386;9.980;2022-09-09T08:57:51;19.20;99.90
5429;DHT22;2737;52.386;9.980;2022-09-09T09:00:20;19.30;99.90
5429;DHT22;2737;52.386;9.980;2022-09-09T09:02:54;19.30;99.90
5429;DHT22;2737;52.386;9.980;2022-09-09T09:05:31;19.40;99.90
5429;DHT22;2737;52.386;9.980;2022-09-09T09:08:05;19.50;99.90
5429;DHT22;2737;52.386;9.980;2022-09-09T09:10:45;19.50;99.90
5429;DHT22;2737;52.386;9.980;2022-09-09T09:13:18;19.60;99.90
5429;DHT22;2737;52.386;9.980;2022-09-09T09:15:50;19.50;99.90
5429;DHT22;2737;52.386;9.980;2022-09-09T09:18:19;19.50;99.90
5429;DHT22;2737;52.386;9.980;2022-09-09T09:20:58;19.50;99.90
5429;DHT22;2737;52.386;9.980;2022-09-09T09:23:35;19.40;99.90
5429;DHT22;2737;52.386;9.980;2022-09-09T09:26:09;19.40;99.90
5429;DHT22;2737;52.386;9.980;2022-09-09T09:28:38;19.30;99.90
5429;DHT22;2737;52.386;9.980;2022-09-09T09:31:08;19.60;99.90
5429;DHT22;2737;52.386;9.980;2022-09-09T09:33:42;19.80;99.90
5429;DHT22;2737;52.386;9.980;2022-09-09T09:36:13;20.00;99.90
5429;DHT22;2737;52.386;9.980;2022-09-09T09:38:52;19.90;99.90
5429;DHT22;2737;52.386;9.980;2022-09-09T09:41:29;19.90;99.90
5429;DHT22;2737;52.386;9.980;2022-09-09T09:43:59;20.00;99.90
5429;DHT22;2737;52.386;9.980;2022-09-09T09:46:27;20.10;99.90
5429;DHT22;2737;52.386;9.980;2022-09-09T09:48:58;20.10;99.90
5429;DHT22;2737;52.386;9.980;2022-09-09T09:51:33;20.10;99.90
5429;DHT22;2737;52.386;9.980;2022-09-09T09:54:18;20.10;99.90
5429;DHT22;2737;52.386;9.980;2022-09-09T09:57:16;20.00;99.90
5429;DHT22;2737;52.386;9.980;2022-09-09T10:00:12;20.00;99.90
5429;DHT22;2737;52.386;9.980;2022-09-09T10:02:50;19.90;99.90
5429;DHT22;2737;52.386;9.980;2022-09-09T10:05:22;20.00;99.90
5429;DHT22;2737;52.386;9.980;2022-09-09T10:08:01;20.00;99.90
5429;DHT22;2737;52.386;9.980;2022-09-09T10:10:42;19.90;99.90
5429;DHT22;2737;52.386;9.980;2022-09-09T10:13:18;20.00;99.90
5429;DHT22;2737;52.386;9.980;2022-09-09T10:15:58;19.90;99.90
5429;DHT22;2737;52.386;9.980;2022-09-09T10:18:45;19.70;99.90
5429;DHT22;2737;52.386;9.980;2022-09-09T10:21:24;19.70;99.90
5429;DHT22;2737;52.386;9.980;2022-09-09T10:24:07;19.80;99.90
5429;DHT22;2737;52.386;9.980;2022-09-09T10:26:44;19.80;99.90
5429;DHT22;2737;52.386;9.980;2022-09-09T10:32:27;19.90;99.90
5429;DHT22;2737;52.386;9.980;2022-09-09T10:35:01;20.00;99.90
5429;DHT22;2737;52.386;9.980;2022-09-09T10:40:28;20.30;99.90
5429;DHT22;2737;52.386;9.980;2022-09-09T10:43:07;20.40;99.90
5429;DHT22;2737;52.386;9.980;2022-09-09T10:45:45;20.30;99.90
5429;DHT22;2737;52.386;9.980;2022-09-09T10:48:31;20.40;99.90
5429;DHT22;2737;52.386;9.980;2022-09-09T10:51:09;20.40;99.90
5429;DHT22;2737;52.386;9.980;2022-09-09T10:53:48;20.40;99.90
5429;DHT22;2737;52.386;9.980;2022-09-09T10:56:20;20.30;99.90
5429;DHT22;2737;52.386;9.980;2022-09-09T10:58:52;20.10;99.90
5429;DHT22;2737;52.386;9.980;2022-09-09T11:01:24;20.00;99.90
5429;DHT22;2737;52.386;9.980;2022-09-09T11:03:57;20.00;99.90
5429;DHT22;2737;52.386;9.980;2022-09-09T11:06:31;20.00;99.90
5429;DHT22;2737;52.386;9.980;2022-09-09T11:09:00;20.00;99.90
5429;DHT22;2737;52.386;9.980;2022-09-09T11:11:32;20.00;99.90
5429;DHT22;2737;52.386;9.980;2022-09-09T11:14:05;19.90;99.90
5429;DHT22;2737;52.386;9.980;2022-09-09T11:16:41;19.80;99.90
5429;DHT22;2737;52.386;9.980;2022-09-09T11:19:17;19.80;99.90
5429;DHT22;2737;52.386;9.980;2022-09-09T11:21:49;20.00;99.90
5429;DHT22;2737;52.386;9.980;2022-09-09T11:24:21;20.20;99.90
5429;DHT22;2737;52.386;9.980;2022-09-09T11:26:53;20.40;99.90
5429;DHT22;2737;52.386;9.980;2022-09-09T11:30:01;20.50;99.90
5429;DHT22;2737;52.386;9.980;2022-09-09T11:35:33;20.60;99.90
5429;DHT22;2737;52.386;9.980;2022-09-09T11:38:18;20.40;99.90
5429;DHT22;2737;52.386;9.980;2022-09-09T11:40:46;20.40;99.90
5429;DHT22;2737;52.386;9.980;2022-09-09T11:43:16;20.30;99.90
5429;DHT22;2737;52.386;9.980;2022-09-09T11:45:52;20.20;99.90
5429;DHT22;2737;52.386;9.980;2022-09-09T11:48:25;20.10;99.90
5429;DHT22;2737;52.386;9.980;2022-09-09T11:51:01;20.00;99.90
5429;DHT22;2737;52.386;9.980;2022-09-09T11:53:31;19.90;99.90
5429;DHT22;2737;52.386;9.980;2022-09-09T11:56:03;19.70;99.90
5429;DHT22;2737;52.386;9.980;2022-09-09T11:58:36;19.40;99.90
5429;DHT22;2737;52.386;9.980;2022-09-09T12:01:25;19.20;99.90
5429;DHT22;2737;52.386;9.980;2022-09-09T12:04:01;19.00;99.90
5429;DHT22;2737;52.386;9.980;2022-09-09T12:06:42;18.80;99.90
5429;DHT22;2737;52.386;9.980;2022-09-09T12:09:19;18.60;99.90
5429;DHT22;2737;52.386;9.980;2022-09-09T12:11:49;18.50;99.90
5429;DHT22;2737;52.386;9.980;2022-09-09T12:14:21;18.30;99.90
5429;DHT22;2737;52.386;9.980;2022-09-09T12:16:48;18.20;99.90
5429;DHT22;2737;52.386;9.980;2022-09-09T12:19:19;18.10;99.90
5429;DHT22;2737;52.386;9.980;2022-09-09T12:21:58;18.10;99.90
5429;DHT22;2737;52.386;9.980;2022-09-09T12:24:37;18.00;99.90
5429;DHT22;2737;52.386;9.980;2022-09-09T12:27:11;18.00;99.90
5429;DHT22;2737;52.386;9.980;2022-09-09T12:29:48;18.00;99.90
5429;DHT22;2737;52.386;9.980;2022-09-09T12:32:23;18.00;99.90
5429;DHT22;2737;52.386;9.980;2022-09-09T12:34:53;18.00;99.90
5429;DHT22;2737;52.386;9.980;2022-09-09T12:37:27;17.90;99.90
5429;DHT22;2737;52.386;9.980;2022-09-09T12:39:57;17.70;99.90
5429;DHT22;2737;52.386;9.980;2022-09-09T12:42:25;17.60;99.90
5429;DHT22;2737;52.386;9.980;2022-09-09T12:44:54;17.80;99.90
5429;DHT22;2737;52.386;9.980;2022-09-09T12:47:26;18.10;99.90
5429;DHT22;2737;52.386;9.980;2022-09-09T12:49:55;18.30;99.90
5429;DHT22;2737;52.386;9.980;2022-09-09T12:52:27;18.30;99.90
5429;DHT22;2737;52.386;9.980;2022-09-09T12:54:57;18.30;99.90
5429;DHT22;2737;52.386;9.980;2022-09-09T12:57:30;18.40;99.90
5429;DHT22;2737;52.386;9.980;2022-09-09T13:00:14;18.50;99.90
5429;DHT22;2737;52.386;9.980;2022-09-09T13:02:50;18.50;99.90
5429;DHT22;2737;52.386;9.980;2022-09-09T13:05:21;18.40;99.90
5429;DHT22;2737;52.386;9.980;2022-09-09T13:07:49;18.50;99.90
5429;DHT22;2737;52.386;9.980;2022-09-09T13:10:23;18.50;99.90
5429;DHT22;2737;52.386;9.980;2022-09-09T13:12:52;18.60;99.90
5429;DHT22;2737;52.386;9.980;2022-09-09T13:15:21;18.60;99.90
5429;DHT22;2737;52.386;9.980;2022-09-09T13:17:52;18.70;99.90
5429;DHT22;2737;52.386;9.980;2022-09-09T13:20:21;18.70;99.90
5429;DHT22;2737;52.386;9.980;2022-09-09T13:22:51;18.70;99.90
5429;DHT22;2737;52.386;9.980;2022-09-09T13:25:21;18.80;99.90
5429;DHT22;2737;52.386;9.980;2022-09-09T13:27:59;18.80;99.90
5429;DHT22;2737;52.386;9.980;2022-09-09T13:30:29;18.90;99.90
5429;DHT22;2737;52.386;9.980;2022-09-09T13:33:17;19.10;99.90
5429;DHT22;2737;52.386;9.980;2022-09-09T13:35:47;19.10;99.90
5429;DHT22;2737;52.386;9.980;2022-09-09T13:38:17;19.30;99.90
5429;DHT22;2737;52.386;9.980;2022-09-09T13:40:53;19.40;99.90
5429;DHT22;2737;52.386;9.980;2022-09-09T13:43:24;19.50;99.90
5429;DHT22;2737;52.386;9.980;2022-09-09T13:45:57;19.60;99.90
5429;DHT22;2737;52.386;9.980;2022-09-09T13:48:25;19.60;99.90
5429;DHT22;2737;52.386;9.980;2022-09-09T13:51:01;19.70;99.90
5429;DHT22;2737;52.386;9.980;2022-09-09T13:53:30;19.70;99.90
5429;DHT22;2737;52.386;9.980;2022-09-09T13:55:57;19.60;99.90
5429;DHT22;2737;52.386;9.980;2022-09-09T13:58:25;19.70;99.90
5429;DHT22;2737;52.386;9.980;2022-09-09T14:00:53;19.60;99.90
5429;DHT22;2737;52.386;9.980;2022-09-09T14:03:20;19.60;99.90
5429;DHT22;2737;52.386;9.980;2022-09-09T14:05:47;19.60;99.90
5429;DHT22;2737;52.386;9.980;2022-09-09T14:08:24;19.50;99.90
5429;DHT22;2737;52.386;9.980;2022-09-09T14:10:53;19.50;99.90
5429;DHT22;2737;52.386;9.980;2022-09-09T14:13:23;19.60;99.90
5429;DHT22;2737;52.386;9.980;2022-09-09T14:15:50;19.60;99.90
5429;DHT22;2737;52.386;9.980;2022-09-09T14:18:17;19.60;99.90
5429;DHT22;2737;52.386;9.980;2022-09-09T14:20:44;19.60;99.90
5429;DHT22;2737;52.386;9.980;2022-09-09T14:23:12;19.70;99.90
5429;DHT22;2737;52.386;9.980;2022-09-09T14:25:41;19.70;99.90
5429;DHT22;2737;52.386;9.980;2022-09-09T14:28:12;19.70;99.90
5429;DHT22;2737;52.386;9.980;2022-09-09T14:30:40;19.80;99.90
5429;DHT22;2737;52.386;9.980;2022-09-09T14:33:08;19.70;99.90
5429;DHT22;2737;52.386;9.980;2022-09-09T14:35:36;19.70;99.90
5429;DHT22;2737;52.386;9.980;2022-09-09T14:38:04;19.80;99.90
5429;DHT22;2737;52.386;9.980;2022-09-09T14:40:31;19.90;99.90
5429;DHT22;2737;52.386;9.980;2022-09-09T14:43:02;19.90;99.90
5429;DHT22;2737;52.386;9.980;2022-09-09T14:45:47;19.90;99.90
5429;DHT22;2737;52.386;9.980;2022-09-09T14:48:22;19.90;99.90
5429;DHT22;2737;52.386;9.980;2022-09-09T14:50:56;19.90;99.90
5429;DHT22;2737;52.386;9.980;2022-09-09T14:53:32;20.00;99.90
5429;DHT22;2737;52.386;9.980;2022-09-09T14:56:09;20.00;99.90
5429;DHT22;2737;52.386;9.980;2022-09-09T14:58:47;20.00;99.90
5429;DHT22;2737;52.386;9.980;2022-09-09T15:01:32;20.10;99.90
5429;DHT22;2737;52.386;9.980;2022-09-09T15:04:14;20.10;99.90
5429;DHT22;2737;52.386;9.980;2022-09-09T15:06:53;20.30;99.90
5429;DHT22;2737;52.386;9.980;2022-09-09T15:09:26;20.30;99.90
5429;DHT22;2737;52.386;9.980;2022-09-09T15:11:53;20.40;99.90
5429;DHT22;2737;52.386;9.980;2022-09-09T15:14:20;20.40;99.90
5429;DHT22;2737;52.386;9.980;2022-09-09T15:16:49;20.40;99.90
5429;DHT22;2737;52.386;9.980;2022-09-09T15:19:16;20.50;99.90
5429;DHT22;2737;52.386;9.980;2022-09-09T15:21:43;20.50;99.90
5429;DHT22;2737;52.386;9.980;2022-09-09T15:24:10;20.50;99.90
5429;DHT22;2737;52.386;9.980;2022-09-09T15:26:39;20.50;99.90
5429;DHT22;2737;52.386;9.980;2022-09-09T15:29:06;20.50;99.90
5429;DHT22;2737;52.386;9.980;2022-09-09T15:31:34;20.60;99.90
5429;DHT22;2737;52.386;9.980;2022-09-09T15:34:04;20.50;99.90
5429;DHT22;2737;52.386;9.980;2022-09-09T15:36:33;20.50;99.90
5429;DHT22;2737;52.386;9.980;2022-09-09T15:39:01;20.50;99.90
5429;DHT22;2737;52.386;9.980;2022-09-09T15:41:29;20.50;99.90
5429;DHT22;2737;52.386;9.980;2022-09-09T15:43:57;20.50;99.90
5429;DHT22;2737;52.386;9.980;2022-09-09T15:46:27;20.40;99.90
5429;DHT22;2737;52.386;9.980;2022-09-09T15:48:56;20.40;99.90
5429;DHT22;2737;52.386;9.980;2022-09-09T15:51:25;20.40;99.90
5429;DHT22;2737;52.386;9.980;2022-09-09T15:53:56;20.40;99.90
5429;DHT22;2737;52.386;9.980;2022-09-09T15:56:24;20.30;99.90
5429;DHT22;2737;52.386;9.980;2022-09-09T15:58:53;20.30;99.90
5429;DHT22;2737;52.386;9.980;2022-09-09T16:01:20;20.30;99.90
5429;DHT22;2737;52.386;9.980;2022-09-09T16:03:47;20.30;99.90
5429;DHT22;2737;52.386;9.980;2022-09-09T16:06:17;20.30;99.90
5429;DHT22;2737;52.386;9.980;2022-09-09T16:08:49;20.20;99.90
5429;DHT22;2737;52.386;9.980;2022-09-09T16:11:19;20.20;99.90
5429;DHT22;2737;52.386;9.980;2022-09-09T16:13:47;20.20;99.90
5429;DHT22;2737;52.386;9.980;2022-09-09T16:16:16;20.20;99.90
5429;DHT22;2737;52.386;9.980;2022-09-09T16:18:47;20.20;99.90
5429;DHT22;2737;52.386;9.980;2022-09-09T16:21:16;20.20;99.90
5429;DHT22;2737;52.386;9.980;2022-09-09T16:23:43;20.20;99.90
5429;DHT22;2737;52.386;9.980;2022-09-09T16:26:14;20.20;99.90
5429;DHT22;2737;52.386;9.980;2022-09-09T16:28:41;20.20;99.90
5429;DHT22;2737;52.386;9.980;2022-09-09T16:31:10;20.20;99.90
5429;DHT22;2737;52.386;9.980;2022-09-09T16:33:39;20.20;99.90
5429;DHT22;2737;52.386;9.980;2022-09-09T16:36:07;20.20;99.90
5429;DHT22;2737;52.386;9.980;2022-09-09T16:38:36;20.30;99.90
5429;DHT22;2737;52.386;9.980;2022-09-09T16:41:05;20.30;99.90